createdAt,value
2023-04-27T08:57:00.000Z,45.385742
2023-04-27T08:57:20.000Z,45.281982
2023-04-27T08:57:41.000Z,44.976807
2023-04-27T08:58:01.000Z,44.183350
2023-04-27T08:58:21.000Z,43.975830
2023-04-27T08:58:42.000Z,44.183350
2023-04-27T08:59:02.000Z,44.183350
2023-04-27T08:59:22.000Z,43.975830
2023-04-27T08:59:42.000Z,45.507812
2023-04-27T09:00:03.000Z,45.715332
2023-04-27T09:00:23.000Z,45.202637
2023-04-27T09:00:43.000Z,45.306396
2023-04-27T09:01:03.000Z,46.429443
2023-04-27T09:01:24.000Z,46.325684
2023-04-27T09:01:44.000Z,45.202637
2023-04-27T09:02:04.000Z,45.611572
2023-04-27T09:02:24.000Z,46.630859
2023-04-27T09:02:45.000Z,47.546387
2023-04-27T09:03:05.000Z,46.936035
2023-04-27T09:03:25.000Z,46.936035
2023-04-27T09:03:47.000Z,46.527100
2023-04-27T09:04:07.000Z,47.222900
2023-04-27T09:04:27.000Z,47.119141
2023-04-27T09:04:47.000Z,47.833252
2023-04-27T09:05:08.000Z,47.424316
2023-04-27T09:05:28.000Z,47.222900
2023-04-27T09:05:48.000Z,45.996094
2023-04-27T09:06:09.000Z,46.099854
2023-04-27T09:06:29.000Z,45.996094
2023-04-27T09:06:49.000Z,45.892334
2023-04-27T09:07:09.000Z,47.631836
2023-04-27T09:07:29.000Z,47.937012
2023-04-27T09:07:50.000Z,47.631836
2023-04-27T09:08:10.000Z,45.996094
2023-04-27T09:08:30.000Z,44.873047
2023-04-27T09:08:51.000Z,44.873047
2023-04-27T09:09:11.000Z,44.775391
2023-04-27T09:09:31.000Z,44.671631
2023-04-27T09:09:51.000Z,44.262695
2023-04-27T09:10:11.000Z,44.873047
2023-04-27T09:10:32.000Z,45.385742
2023-04-27T09:10:52.000Z,45.587158
2023-04-27T09:11:12.000Z,45.996094
2023-04-27T09:11:33.000Z,45.794678
2023-04-27T09:11:53.000Z,45.690918
2023-04-27T09:12:13.000Z,44.976807
2023-04-27T09:12:33.000Z,44.079590
2023-04-27T09:12:54.000Z,43.774414
2023-04-27T09:13:14.000Z,44.384766
2023-04-27T09:13:34.000Z,44.592285
2023-04-27T09:13:55.000Z,44.384766
2023-04-27T09:14:15.000Z,44.506836
2023-04-27T09:14:35.000Z,44.915771
2023-04-27T09:14:55.000Z,45.532227
2023-04-27T09:15:16.000Z,46.038818
2023-04-27T09:15:36.000Z,46.429443
2023-04-27T09:15:56.000Z,46.832275
2023-04-27T09:16:16.000Z,47.119141
2023-04-27T09:16:37.000Z,47.094727
2023-04-27T09:16:40.000Z,43.731689
2023-04-27T09:20:32.000Z,43.994141
2023-04-27T09:20:52.000Z,43.365479
2023-04-27T09:21:12.000Z,42.840576
2023-04-27T09:21:22.000Z,39.007568
2023-04-27T09:28:56.000Z,39.111328
2023-04-27T09:29:16.000Z,38.909912
2023-04-27T09:29:36.000Z,38.928223
2023-04-27T09:29:46.000Z,40.399170
2023-04-27T09:35:53.000Z,40.399170
2023-04-27T09:36:13.000Z,40.502930
2023-04-27T09:36:33.000Z,40.704346
2023-04-27T09:36:42.000Z,41.796875
2023-04-27T09:42:58.000Z,41.699219
2023-04-27T09:43:18.000Z,41.699219
2023-04-27T09:43:39.000Z,42.102051
2023-04-27T09:43:48.000Z,42.529297
2023-04-27T09:44:37.000Z,42.529297
2023-04-27T09:44:57.000Z,42.529297
2023-04-27T09:45:17.000Z,42.938232
2023-04-27T09:45:37.000Z,43.139648
2023-04-27T09:45:58.000Z,43.041992
2023-04-27T09:46:18.000Z,43.139648
2023-04-27T09:46:38.000Z,42.633057
2023-04-27T09:46:59.000Z,42.449951
2023-04-27T09:47:19.000Z,42.144775
2023-04-27T09:47:39.000Z,42.266846
2023-04-27T09:47:59.000Z,42.163086
2023-04-27T09:48:20.000Z,42.370605
2023-04-27T09:48:40.000Z,42.694092
2023-04-27T09:49:00.000Z,42.590332
2023-04-27T09:49:20.000Z,43.322754
2023-04-27T09:49:41.000Z,43.627930
2023-04-27T09:50:01.000Z,43.957520
2023-04-27T09:50:21.000Z,43.548584
2023-04-27T09:50:41.000Z,43.652344
2023-04-27T09:51:02.000Z,43.853760
2023-04-27T09:51:22.000Z,43.652344
2023-04-27T09:51:42.000Z,43.365479
2023-04-27T09:52:02.000Z,43.365479
2023-04-27T09:52:23.000Z,43.365479
2023-04-27T09:52:43.000Z,43.365479
2023-04-27T09:53:03.000Z,43.286133
2023-04-27T09:53:24.000Z,43.383789
2023-04-27T09:53:44.000Z,43.487549
2023-04-27T09:54:04.000Z,43.383789
2023-04-27T09:54:24.000Z,43.688965
2023-04-27T09:54:45.000Z,44.915771
2023-04-27T09:55:05.000Z,44.531250
2023-04-27T09:55:25.000Z,44.940186
2023-04-27T09:55:45.000Z,45.959473
2023-04-27T09:56:06.000Z,46.673584
2023-04-27T09:56:26.000Z,47.595215
2023-04-27T09:56:46.000Z,46.899414
2023-04-27T09:57:07.000Z,47.308350
2023-04-27T09:57:27.000Z,47.204590
2023-04-27T09:57:47.000Z,46.697998
2023-04-27T09:58:07.000Z,46.820068
2023-04-27T09:58:28.000Z,47.637939
2023-04-27T09:58:48.000Z,47.125244
2023-04-27T09:59:08.000Z,47.845459
2023-04-27T09:59:29.000Z,47.741699
2023-04-27T09:59:49.000Z,47.436523
2023-04-27T10:00:09.000Z,48.254395
2023-04-27T10:00:29.000Z,48.455811
2023-04-27T10:00:50.000Z,48.864746
2023-04-27T10:01:10.000Z,48.559570
2023-04-27T10:01:30.000Z,48.864746
2023-04-27T10:01:51.000Z,47.741699
2023-04-27T10:02:11.000Z,46.105957
2023-04-27T10:02:31.000Z,45.800781
2023-04-27T10:02:51.000Z,45.471191
2023-04-27T10:03:12.000Z,45.080566
2023-04-27T10:03:32.000Z,45.288086
2023-04-27T10:03:52.000Z,46.209717
2023-04-27T10:04:13.000Z,46.307373
2023-04-27T10:04:33.000Z,45.880127
2023-04-27T10:04:53.000Z,45.776367
2023-04-27T10:05:13.000Z,45.672607
2023-04-27T10:05:34.000Z,44.854736
2023-04-27T10:05:54.000Z,44.244385
2023-04-27T10:06:14.000Z,44.445801
2023-04-27T10:06:35.000Z,45.037842
2023-04-27T10:06:55.000Z,44.732666
2023-04-27T10:07:15.000Z,44.219971
2023-04-27T10:07:35.000Z,43.713379
2023-04-27T10:07:56.000Z,44.122314
2023-04-27T10:08:16.000Z,45.349121
2023-04-27T10:08:36.000Z,45.629883
2023-04-27T10:08:57.000Z,45.733643
2023-04-27T10:09:17.000Z,44.610596
2023-04-27T10:09:37.000Z,44.000244
2023-04-27T10:09:57.000Z,44.305420
2023-04-27T10:10:18.000Z,44.079590
2023-04-27T10:10:38.000Z,44.201660
2023-04-27T10:10:58.000Z,44.097900
2023-04-27T10:11:19.000Z,44.506836
2023-04-27T10:11:39.000Z,43.688965
2023-04-27T10:11:59.000Z,43.078613
2023-04-27T10:12:20.000Z,42.755127
2023-04-27T10:12:40.000Z,42.755127
2023-04-27T10:13:00.000Z,42.651367
2023-04-27T10:13:20.000Z,42.755127
2023-04-27T10:13:41.000Z,42.755127
2023-04-27T10:14:01.000Z,42.547607
2023-04-27T10:14:21.000Z,43.164062
2023-04-27T10:14:42.000Z,44.384766
2023-04-27T10:15:02.000Z,43.164062
2023-04-27T10:15:22.000Z,42.547607
2023-04-27T10:15:42.000Z,41.650391
2023-04-27T10:16:03.000Z,42.059326
2023-04-27T10:16:23.000Z,42.364502
2023-04-27T10:16:43.000Z,42.669678
2023-04-27T10:17:04.000Z,42.651367
2023-04-27T10:17:24.000Z,42.755127
2023-04-27T10:17:44.000Z,42.327881
2023-04-27T10:18:05.000Z,41.815186
2023-04-27T10:18:25.000Z,40.795898
2023-04-27T10:18:45.000Z,40.673828
2023-04-27T10:19:05.000Z,41.082764
2023-04-27T10:19:26.000Z,41.589355
2023-04-27T10:19:46.000Z,42.083740
2023-04-27T10:20:06.000Z,42.773438
2023-04-27T10:20:27.000Z,42.956543
2023-04-27T10:20:47.000Z,42.938232
2023-04-27T15:50:08.000Z,29.418945
2023-04-27T15:50:28.000Z,29.736328
2023-04-27T15:50:49.000Z,30.139160
2023-04-27T15:51:09.000Z,29.833984
2023-04-27T15:51:29.000Z,29.443359
2023-04-27T15:51:49.000Z,29.547119
2023-04-27T15:52:10.000Z,29.949951
2023-04-27T15:52:30.000Z,30.468750
2023-04-27T15:52:50.000Z,30.773926
2023-04-27T15:53:10.000Z,30.279541
2023-04-27T15:53:31.000Z,30.181885
2023-04-27T15:53:51.000Z,29.791260
2023-04-27T15:54:11.000Z,30.194092
2023-04-27T15:54:32.000Z,31.018066
2023-04-27T15:54:52.000Z,31.219482
2023-04-27T15:55:12.000Z,30.828857
2023-04-27T15:55:32.000Z,30.731201
2023-04-27T15:55:53.000Z,31.048584
2023-04-27T15:56:13.000Z,32.055664
2023-04-27T15:56:33.000Z,32.275391
2023-04-27T15:56:53.000Z,32.275391
2023-04-27T15:57:14.000Z,32.580566
2023-04-27T15:57:34.000Z,32.391357
2023-04-27T15:57:54.000Z,33.099365
2023-04-27T15:58:15.000Z,32.897949
2023-04-27T15:58:35.000Z,33.117676
2023-04-27T15:58:55.000Z,33.117676
2023-04-27T15:59:16.000Z,33.215332
2023-04-27T15:59:36.000Z,33.435059
2023-04-27T15:59:56.000Z,33.245850
2023-04-27T16:00:16.000Z,33.654785
2023-04-27T16:00:37.000Z,33.349609
2023-04-27T16:00:57.000Z,33.551025
2023-04-27T16:01:17.000Z,33.551025
2023-04-27T16:01:37.000Z,33.453369
2023-04-27T16:01:58.000Z,33.062744
2023-04-27T16:02:18.000Z,33.160400
2023-04-27T16:02:38.000Z,32.653809
2023-04-27T16:02:59.000Z,32.757568
2023-04-27T16:03:19.000Z,32.556152
2023-04-27T16:03:39.000Z,32.250977
2023-04-27T16:03:59.000Z,32.757568
2023-04-27T16:04:20.000Z,32.958984
2023-04-27T16:04:40.000Z,32.757568
2023-04-27T16:05:00.000Z,32.739258
2023-04-27T16:05:20.000Z,32.440186
2023-04-27T16:05:41.000Z,32.336426
2023-04-27T16:06:01.000Z,31.524658
2023-04-27T16:06:21.000Z,31.524658
2023-04-27T16:06:42.000Z,31.524658
2023-04-27T16:07:02.000Z,31.829834
2023-04-27T16:07:22.000Z,31.829834
2023-04-27T16:07:43.000Z,32.318115
2023-04-27T16:08:03.000Z,32.525635
2023-04-27T16:08:03.000Z,33.215332
2023-04-27T16:09:01.000Z,33.520508
2023-04-27T16:09:21.000Z,33.709717
2023-04-27T16:09:41.000Z,33.605957
2023-04-27T16:10:02.000Z,33.795166
2023-04-27T17:01:04.000Z,35.260010
2023-04-27T17:01:24.000Z,35.260010
2023-04-27T17:01:45.000Z,35.058594
2023-04-27T17:02:04.000Z,33.331299
2023-04-27T17:07:02.000Z,33.538818
2023-04-27T17:07:22.000Z,32.727051
2023-04-27T17:07:42.000Z,32.220459
2023-04-27T17:08:08.000Z,31.207275
2023-04-27T17:08:28.000Z,31.005859
2023-04-27T17:08:49.000Z,31.512451
2023-04-27T17:09:09.000Z,31.829834
2023-04-27T17:09:29.000Z,31.524658
2023-04-27T17:09:50.000Z,31.420898
2023-04-27T17:10:10.000Z,31.829834
2023-04-27T17:10:30.000Z,31.842041
2023-04-27T17:10:50.000Z,31.842041
2023-04-27T17:11:11.000Z,31.439209
2023-04-27T17:11:31.000Z,31.640625
2023-04-27T17:11:51.000Z,32.165527
2023-04-27T17:12:12.000Z,32.672119
2023-04-27T17:12:32.000Z,32.366943
2023-04-27T17:12:52.000Z,32.061768
2023-04-27T17:13:12.000Z,31.976318
2023-04-27T17:13:33.000Z,32.177734
2023-04-27T17:13:53.000Z,32.586670
2023-04-27T17:14:13.000Z,32.684326
2023-04-27T17:14:34.000Z,32.989502
2023-04-27T17:14:54.000Z,33.294678
2023-04-27T17:15:14.000Z,33.398438
2023-04-27T17:15:35.000Z,33.398438
2023-04-27T17:15:55.000Z,35.632324
2023-04-27T17:16:15.000Z,38.470459
2023-04-27T17:16:35.000Z,38.574219
2023-04-27T17:16:56.000Z,39.508057
2023-04-27T17:17:16.000Z,39.813232
2023-04-27T17:17:36.000Z,38.201904
2023-04-27T17:17:57.000Z,36.474609
2023-04-27T17:18:17.000Z,35.174561
2023-04-27T17:18:37.000Z,34.051514
2023-04-27T17:18:58.000Z,33.953857
2023-04-27T17:19:18.000Z,34.155273
2023-04-27T17:19:38.000Z,33.563232
2023-04-27T17:19:58.000Z,33.258057
2023-04-27T17:20:19.000Z,33.764648
2023-04-27T17:20:39.000Z,33.660889
2023-04-27T17:20:59.000Z,33.355713
2023-04-27T17:21:19.000Z,33.355713
2023-04-27T17:21:40.000Z,34.881592
2023-04-27T17:22:00.000Z,35.595703
2023-04-27T17:22:20.000Z,36.712646
2023-04-27T17:22:41.000Z,36.004639
2023-04-27T17:23:01.000Z,34.796143
2023-04-27T17:23:21.000Z,34.594727
2023-04-27T17:23:42.000Z,34.393311
2023-04-27T17:24:02.000Z,34.393311
2023-04-27T17:24:22.000Z,33.984375
2023-04-27T17:24:43.000Z,33.880615
2023-04-27T17:25:03.000Z,33.984375
2023-04-27T17:25:23.000Z,33.984375
2023-04-27T17:25:43.000Z,34.185791
2023-04-27T17:26:04.000Z,33.984375
2023-04-27T17:26:24.000Z,34.088135
2023-04-27T17:26:44.000Z,33.984375
2023-04-27T17:27:05.000Z,34.185791
2023-04-27T17:27:25.000Z,34.490967
2023-04-27T17:27:45.000Z,34.710693
2023-04-27T17:28:17.000Z,35.729980
2023-04-27T17:28:37.000Z,35.833740
2023-04-27T17:28:58.000Z,35.626221
2023-04-27T17:29:18.000Z,36.547852
